sensor_id;sensor_type;location;lat;lon;timestamp;pressure;altitude;pressure_sealevel;temperature;humidity
44457;BME280;30159;49.316;8.558;2023-02-19T00:02:04;100984.53;;;11.03;100.00
44457;BME280;30159;49.316;8.558;2023-02-19T00:04:30;100972.09;;;10.97;100.00
44457;BME280;30159;49.316;8.558;2023-02-19T00:06:57;100982.38;;;11.05;100.00
44457;BME280;30159;49.316;8.558;2023-02-19T00:09:25;100979.38;;;11.02;100.00
44457;BME280;30159;49.316;8.558;2023-02-19T00:11:51;100971.28;;;11.02;100.00
44457;BME280;30159;49.316;8.558;2023-02-19T00:14:19;100972.63;;;11.04;100.00
44457;BME280;30159;49.316;8.558;2023-02-19T00:16:46;100953.22;;;11.07;100.00
44457;BME280;30159;49.316;8.558;2023-02-19T00:19:14;100967.78;;;11.01;100.00
44457;BME280;30159;49.316;8.558;2023-02-19T00:21:41;100956.97;;;11.06;100.00
44457;BME280;30159;49.316;8.558;2023-02-19T00:24:10;100940.00;;;11.01;100.00
44457;BME280;30159;49.316;8.558;2023-02-19T00:26:39;100961.84;;;10.99;100.00
44457;BME280;30159;49.316;8.558;2023-02-19T00:29:08;100966.44;;;10.99;100.00
44457;BME280;30159;49.316;8.558;2023-02-19T00:31:37;100976.44;;;10.98;100.00
44457;BME280;30159;49.316;8.558;2023-02-19T00:34:05;100972.94;;;11.03;100.00
44457;BME280;30159;49.316;8.558;2023-02-19T00:36:33;100980.47;;;11.06;100.00
44457;BME280;30159;49.316;8.558;2023-02-19T00:39:01;100965.91;;;11.12;100.00
44457;BME280;30159;49.316;8.558;2023-02-19T00:41:28;100958.31;;;10.88;100.00
44457;BME280;30159;49.316;8.558;2023-02-19T00:43:58;100974.25;;;11.00;100.00
44457;BME280;30159;49.316;8.558;2023-02-19T00:46:27;100999.63;;;10.99;100.00
44457;BME280;30159;49.316;8.558;2023-02-19T00:48:54;100984.47;;;10.88;100.00
44457;BME280;30159;49.316;8.558;2023-02-19T00:51:23;100935.84;;;10.52;100.00
44457;BME280;30159;49.316;8.558;2023-02-19T00:53:51;100926.66;;;10.53;100.00
44457;BME280;30159;49.316;8.558;2023-02-19T00:56:17;100971.50;;;10.69;100.00
44457;BME280;30159;49.316;8.558;2023-02-19T00:58:44;100957.75;;;10.71;100.00
44457;BME280;30159;49.316;8.558;2023-02-19T01:01:12;100920.97;;;10.39;100.00
44457;BME280;30159;49.316;8.558;2023-02-19T01:03:39;100955.53;;;10.63;100.00
44457;BME280;30159;49.316;8.558;2023-02-19T01:06:07;100957.44;;;10.62;100.00
44457;BME280;30159;49.316;8.558;2023-02-19T01:08:34;100969.56;;;10.60;100.00
44457;BME280;30159;49.316;8.558;2023-02-19T01:11:02;100966.63;;;10.56;100.00
44457;BME280;30159;49.316;8.558;2023-02-19T01:13:29;100972.53;;;10.58;100.00
44457;BME280;30159;49.316;8.558;2023-02-19T01:16:01;100972.00;;;10.56;100.00
44457;BME280;30159;49.316;8.558;2023-02-19T01:18:30;100974.16;;;10.59;100.00
44457;BME280;30159;49.316;8.558;2023-02-19T01:20:56;100985.50;;;10.61;100.00
44457;BME280;30159;49.316;8.558;2023-02-19T01:23:23;100988.19;;;10.61;100.00
44457;BME280;30159;49.316;8.558;2023-02-19T01:25:49;100976.59;;;10.61;100.00
44457;BME280;30159;49.316;8.558;2023-02-19T01:28:16;100984.97;;;10.59;100.00
44457;BME280;30159;49.316;8.558;2023-02-19T01:30:42;100986.81;;;10.53;100.00
44457;BME280;30159;49.316;8.558;2023-02-19T01:33:09;100997.09;;;10.57;100.00
44457;BME280;30159;49.316;8.558;2023-02-19T01:35:38;100987.13;;;10.62;100.00
44457;BME280;30159;49.316;8.558;2023-02-19T01:38:05;100992.50;;;10.62;100.00
44457;BME280;30159;49.316;8.558;2023-02-19T01:40:32;100986.59;;;10.65;100.00
44457;BME280;30159;49.316;8.558;2023-02-19T01:42:59;100970.94;;;10.67;100.00
44457;BME280;30159;49.316;8.558;2023-02-19T01:45:29;100963.13;;;10.66;100.00
44457;BME280;30159;49.316;8.558;2023-02-19T01:48:01;100967.13;;;10.58;100.00
44457;BME280;30159;49.316;8.558;2023-02-19T01:50:30;100964.41;;;10.43;100.00
44457;BME280;30159;49.316;8.558;2023-02-19T01:53:01;100964.88;;;10.29;100.00
44457;BME280;30159;49.316;8.558;2023-02-19T01:55:30;100975.38;;;10.26;100.00
44457;BME280;30159;49.316;8.558;2023-02-19T01:57:57;100986.66;;;10.23;100.00
44457;BME280;30159;49.316;8.558;2023-02-19T02:00:25;100991.25;;;10.22;100.00
44457;BME280;30159;49.316;8.558;2023-02-19T02:02:54;100982.09;;;10.23;100.00
44457;BME280;30159;49.316;8.558;2023-02-19T02:05:28;100988.34;;;10.29;100.00
44457;BME280;30159;49.316;8.558;2023-02-19T02:08:00;100971.03;;;10.25;100.00
44457;BME280;30159;49.316;8.558;2023-02-19T02:10:45;100968.13;;;10.31;100.00
44457;BME280;30159;49.316;8.558;2023-02-19T02:13:12;100929.50;;;10.21;100.00
44457;BME280;30159;49.316;8.558;2023-02-19T02:15:43;100947.66;;;10.41;100.00
44457;BME280;30159;49.316;8.558;2023-02-19T02:18:22;100943.88;;;10.42;100.00
44457;BME280;30159;49.316;8.558;2023-02-19T02:21:02;100954.16;;;10.45;100.00
44457;BME280;30159;49.316;8.558;2023-02-19T02:23:40;100952.03;;;10.52;100.00
44457;BME280;30159;49.316;8.558;2023-02-19T02:26:24;100936.91;;;10.46;100.00
44457;BME280;30159;49.316;8.558;2023-02-19T02:29:21;100935.28;;;10.45;100.00
44457;BME280;30159;49.316;8.558;2023-02-19T02:31:55;100889.81;;;10.06;100.00
44457;BME280;30159;49.316;8.558;2023-02-19T02:34:26;100890.91;;;10.05;100.00
44457;BME280;30159;49.316;8.558;2023-02-19T02:36:55;100952.81;;;10.42;100.00
44457;BME280;30159;49.316;8.558;2023-02-19T02:39:25;100951.47;;;10.45;100.00
44457;BME280;30159;49.316;8.558;2023-02-19T02:41:55;100948.22;;;10.38;100.00
44457;BME280;30159;49.316;8.558;2023-02-19T02:44:41;100944.97;;;10.36;100.00
44457;BME280;30159;49.316;8.558;2023-02-19T02:47:30;100933.88;;;10.32;100.00
44457;BME280;30159;49.316;8.558;2023-02-19T02:50:11;100891.16;;;10.03;100.00
44457;BME280;30159;49.316;8.558;2023-02-19T02:52:40;100927.63;;;10.26;100.00
44457;BME280;30159;49.316;8.558;2023-02-19T02:55:29;100922.19;;;10.16;100.00
44457;BME280;30159;49.316;8.558;2023-02-19T02:57:58;100925.97;;;10.10;100.00
44457;BME280;30159;49.316;8.558;2023-02-19T03:00:25;100925.44;;;10.18;100.00
44457;BME280;30159;49.316;8.558;2023-02-19T03:03:16;100924.06;;;10.10;100.00
44457;BME280;30159;49.316;8.558;2023-02-19T03:05:44;100931.28;;;10.00;100.00
44457;BME280;30159;49.316;8.558;2023-02-19T03:08:22;100927.78;;;9.99;100.00
44457;BME280;30159;49.316;8.558;2023-02-19T03:10:54;100937.75;;;9.99;100.00
44457;BME280;30159;49.316;8.558;2023-02-19T03:13:27;100865.28;;;9.44;100.00
44457;BME280;30159;49.316;8.558;2023-02-19T03:16:16;100936.16;;;9.98;100.00
44457;BME280;30159;49.316;8.558;2023-02-19T03:19:17;100934.81;;;10.00;100.00
44457;BME280;30159;49.316;8.558;2023-02-19T03:21:48;100933.16;;;9.99;100.00
44457;BME280;30159;49.316;8.558;2023-02-19T03:24:17;100939.94;;;10.07;100.00
44457;BME280;30159;49.316;8.558;2023-02-19T03:27:04;100944.25;;;10.03;100.00
44457;BME280;30159;49.316;8.558;2023-02-19T03:29:34;100948.06;;;10.12;100.00
44457;BME280;30159;49.316;8.558;2023-02-19T03:32:05;100946.41;;;10.06;100.00
44457;BME280;30159;49.316;8.558;2023-02-19T03:34:37;100953.41;;;10.07;100.00
44457;BME280;30159;49.316;8.558;2023-02-19T03:37:08;100956.38;;;10.00;100.00
44457;BME280;30159;49.316;8.558;2023-02-19T03:39:37;100951.81;;;10.06;100.00
44457;BME280;30159;49.316;8.558;2023-02-19T03:42:14;100946.41;;;10.01;100.00
44457;BME280;30159;49.316;8.558;2023-02-19T03:44:46;100943.09;;;9.88;100.00
44457;BME280;30159;49.316;8.558;2023-02-19T03:47:22;100946.47;;;9.68;100.00
44457;BME280;30159;49.316;8.558;2023-02-19T03:49:55;100962.66;;;9.74;100.00
44457;BME280;30159;49.316;8.558;2023-02-19T03:52:33;100957.81;;;9.76;100.00
44457;BME280;30159;49.316;8.558;2023-02-19T03:55:05;100960.19;;;9.67;100.00
44457;BME280;30159;49.316;8.558;2023-02-19T03:57:37;100958.56;;;9.61;100.00
44457;BME280;30159;49.316;8.558;2023-02-19T04:00:08;100955.56;;;9.57;100.00
44457;BME280;30159;49.316;8.558;2023-02-19T04:02:41;100953.91;;;9.51;100.00
44457;BME280;30159;49.316;8.558;2023-02-19T04:05:12;100955.81;;;9.56;100.00
44457;BME280;30159;49.316;8.558;2023-02-19T04:07:43;100955.31;;;9.59;100.00
44457;BME280;30159;49.316;8.558;2023-02-19T04:10:11;100972.75;;;9.51;100.00
44457;BME280;30159;49.316;8.558;2023-02-19T04:12:41;100974.34;;;9.47;100.00
44457;BME280;30159;49.316;8.558;2023-02-19T04:15:12;100973.84;;;9.55;100.00
44457;BME280;30159;49.316;8.558;2023-02-19T04:17:43;100970.78;;;9.41;100.00
44457;BME280;30159;49.316;8.558;2023-02-19T04:20:13;100971.84;;;9.40;100.00
44457;BME280;30159;49.316;8.558;2023-02-19T04:22:41;100978.91;;;9.46;100.00
44457;BME280;30159;49.316;8.558;2023-02-19T04:25:08;100978.44;;;9.55;100.00
44457;BME280;30159;49.316;8.558;2023-02-19T04:27:35;100794.28;;;8.43;100.00
44457;BME280;30159;49.316;8.558;2023-02-19T04:30:02;100956.03;;;9.49;100.00
44457;BME280;30159;49.316;8.558;2023-02-19T04:32:29;100951.09;;;9.36;100.00
44457;BME280;30159;49.316;8.558;2023-02-19T04:34:55;100961.59;;;9.37;100.00
44457;BME280;30159;49.316;8.558;2023-02-19T04:37:23;100976.13;;;9.36;100.00
44457;BME280;30159;49.316;8.558;2023-02-19T04:39:50;100963.78;;;9.40;100.00
44457;BME280;30159;49.316;8.558;2023-02-19T04:42:16;100976.16;;;9.41;100.00
44457;BME280;30159;49.316;8.558;2023-02-19T04:44:43;100969.69;;;9.37;100.00
44457;BME280;30159;49.316;8.558;2023-02-19T04:47:09;100958.03;;;9.32;100.00
44457;BME280;30159;49.316;8.558;2023-02-19T04:49:36;100977.69;;;9.32;100.00
44457;BME280;30159;49.316;8.558;2023-02-19T04:52:03;100971.25;;;9.33;100.00
44457;BME280;30159;49.316;8.558;2023-02-19T04:54:31;100979.59;;;9.32;100.00
44457;BME280;30159;49.316;8.558;2023-02-19T04:56:57;100969.09;;;9.30;100.00
44457;BME280;30159;49.316;8.558;2023-02-19T04:59:24;100983.38;;;9.36;100.00
44457;BME280;30159;49.316;8.558;2023-02-19T05:01:50;100980.16;;;9.34;100.00
44457;BME280;30159;49.316;8.558;2023-02-19T05:04:17;100969.38;;;9.34;100.00
44457;BME280;30159;49.316;8.558;2023-02-19T05:06:43;100939.34;;;9.15;100.00
44457;BME280;30159;49.316;8.558;2023-02-19T05:09:10;100964.78;;;9.34;100.00
44457;BME280;30159;49.316;8.558;2023-02-19T05:11:38;100963.72;;;9.30;100.00
44457;BME280;30159;49.316;8.558;2023-02-19T05:14:04;100961.81;;;9.31;100.00
44457;BME280;30159;49.316;8.558;2023-02-19T05:16:31;100962.66;;;9.36;100.00
44457;BME280;30159;49.316;8.558;2023-02-19T05:18:58;100966.66;;;9.28;100.00
44457;BME280;30159;49.316;8.558;2023-02-19T05:21:25;100974.47;;;9.30;100.00
44457;BME280;30159;49.316;8.558;2023-02-19T05:23:51;100969.09;;;9.30;100.00
44457;BME280;30159;49.316;8.558;2023-02-19T05:26:19;100942.50;;;9.06;100.00
44457;BME280;30159;49.316;8.558;2023-02-19T05:28:49;100912.38;;;8.77;100.00
44457;BME280;30159;49.316;8.558;2023-02-19T05:31:16;100976.28;;;9.24;100.00
44457;BME280;30159;49.316;8.558;2023-02-19T05:33:43;100975.25;;;9.25;100.00
44457;BME280;30159;49.316;8.558;2023-02-19T05:36:14;100980.84;;;9.19;100.00
44457;BME280;30159;49.316;8.558;2023-02-19T05:38:41;100961.06;;;9.08;100.00
44457;BME280;30159;49.316;8.558;2023-02-19T05:41:09;100986.47;;;9.17;100.00
44457;BME280;30159;49.316;8.558;2023-02-19T05:43:36;100983.53;;;9.19;100.00
44457;BME280;30159;49.316;8.558;2023-02-19T05:46:05;100978.06;;;9.14;100.00
44457;BME280;30159;49.316;8.558;2023-02-19T05:48:32;100825.44;;;8.17;100.00
44457;BME280;30159;49.316;8.558;2023-02-19T05:51:03;100968.69;;;9.16;100.00
44457;BME280;30159;49.316;8.558;2023-02-19T05:53:30;100975.94;;;9.16;100.00
44457;BME280;30159;49.316;8.558;2023-02-19T05:55:57;100976.81;;;9.21;100.00
44457;BME280;30159;49.316;8.558;2023-02-19T05:58:24;100906.22;;;8.82;100.00
44457;BME280;30159;49.316;8.558;2023-02-19T06:00:50;100977.09;;;9.25;100.00
44457;BME280;30159;49.316;8.558;2023-02-19T06:03:18;100969.34;;;9.28;100.00
44457;BME280;30159;49.316;8.558;2023-02-19T06:05:45;100976.09;;;9.31;100.00
44457;BME280;30159;49.316;8.558;2023-02-19T06:08:12;100980.38;;;9.32;100.00
44457;BME280;30159;49.316;8.558;2023-02-19T06:10:39;100986.28;;;9.29;100.00
44457;BME280;30159;49.316;8.558;2023-02-19T06:13:07;100980.91;;;9.29;100.00
44457;BME280;30159;49.316;8.558;2023-02-19T06:15:34;100993.31;;;9.30;100.00
44457;BME280;30159;49.316;8.558;2023-02-19T06:18:01;101000.28;;;9.26;100.00
44457;BME280;30159;49.316;8.558;2023-02-19T06:20:29;100940.88;;;8.78;100.00
44457;BME280;30159;49.316;8.558;2023-02-19T06:22:57;101005.66;;;9.26;100.00
44457;BME280;30159;49.316;8.558;2023-02-19T06:25:23;101020.94;;;9.20;100.00
44457;BME280;30159;49.316;8.558;2023-02-19T06:27:50;101014.28;;;9.28;100.00
44457;BME280;30159;49.316;8.558;2023-02-19T06:30:16;101021.28;;;9.29;100.00
44457;BME280;30159;49.316;8.558;2023-02-19T06:32:43;100958.47;;;8.86;100.00
44457;BME280;30159;49.316;8.558;2023-02-19T06:35:09;101033.94;;;9.28;100.00
44457;BME280;30159;49.316;8.558;2023-02-19T06:37:37;101027.59;;;9.40;100.00
44457;BME280;30159;49.316;8.558;2023-02-19T06:40:05;101022.41;;;9.33;100.00
44457;BME280;30159;49.316;8.558;2023-02-19T06:42:31;101023.00;;;9.40;100.00
44457;BME280;30159;49.316;8.558;2023-02-19T06:44:58;101031.66;;;9.42;100.00
44457;BME280;30159;49.316;8.558;2023-02-19T06:47:24;101015.19;;;9.39;100.00
44457;BME280;30159;49.316;8.558;2023-02-19T06:49:51;101032.81;;;9.52;100.00
44457;BME280;30159;49.316;8.558;2023-02-19T06:52:17;101025.28;;;9.54;100.00
44457;BME280;30159;49.316;8.558;2023-02-19T06:54:45;101023.41;;;9.54;100.00
44457;BME280;30159;49.316;8.558;2023-02-19T06:57:12;101031.50;;;9.59;100.00
44457;BME280;30159;49.316;8.558;2023-02-19T06:59:38;101028.00;;;9.59;100.00
44457;BME280;30159;49.316;8.558;2023-02-19T07:02:05;100878.72;;;8.75;100.00
44457;BME280;30159;49.316;8.558;2023-02-19T07:04:31;101037.53;;;9.71;100.00
44457;BME280;30159;49.316;8.558;2023-02-19T07:06:58;101024.91;;;9.72;100.00
44457;BME280;30159;49.316;8.558;2023-02-19T07:09:24;101025.97;;;9.76;100.00
44457;BME280;30159;49.316;8.558;2023-02-19T07:11:54;101020.72;;;9.91;100.00
44457;BME280;30159;49.316;8.558;2023-02-19T07:14:20;101036.31;;;9.89;100.00
44457;BME280;30159;49.316;8.558;2023-02-19T07:16:47;101023.41;;;9.91;100.00
44457;BME280;30159;49.316;8.558;2023-02-19T07:19:14;101038.56;;;9.98;100.00
44457;BME280;30159;49.316;8.558;2023-02-19T07:21:41;101026.44;;;10.00;100.00
44457;BME280;30159;49.316;8.558;2023-02-19T07:24:08;100971.47;;;9.59;100.00
44457;BME280;30159;49.316;8.558;2023-02-19T07:26:35;101036.97;;;10.07;100.00
44457;BME280;30159;49.316;8.558;2023-02-19T07:29:03;101018.59;;;9.99;100.00
44457;BME280;30159;49.316;8.558;2023-02-19T07:31:30;101051.56;;;10.11;100.00
44457;BME280;30159;49.316;8.558;2023-02-19T07:33:56;101063.41;;;10.10;100.00
44457;BME280;30159;49.316;8.558;2023-02-19T07:36:23;101061.31;;;10.17;100.00
44457;BME280;30159;49.316;8.558;2023-02-19T07:38:54;101067.22;;;10.14;100.00
44457;BME280;30159;49.316;8.558;2023-02-19T07:41:21;101060.81;;;10.25;100.00
44457;BME280;30159;49.316;8.558;2023-02-19T07:43:48;101054.44;;;10.37;100.00
44457;BME280;30159;49.316;8.558;2023-02-19T07:46:16;101053.66;;;10.46;100.00
44457;BME280;30159;49.316;8.558;2023-02-19T07:48:43;101057.75;;;10.49;100.00
44457;BME280;30159;49.316;8.558;2023-02-19T07:51:12;101039.91;;;10.43;100.00
44457;BME280;30159;49.316;8.558;2023-02-19T07:53:40;101059.94;;;10.62;100.00
44457;BME280;30159;49.316;8.558;2023-02-19T07:56:09;101068.84;;;10.63;100.00
44457;BME280;30159;49.316;8.558;2023-02-19T07:58:36;101019.31;;;10.26;100.00
44457;BME280;30159;49.316;8.558;2023-02-19T08:01:08;101063.41;;;10.47;100.00
44457;BME280;30159;49.316;8.558;2023-02-19T08:03:36;101079.13;;;10.66;100.00
44457;BME280;30159;49.316;8.558;2023-02-19T08:06:02;101081.84;;;10.66;100.00
44457;BME280;30159;49.316;8.558;2023-02-19T08:08:29;101090.22;;;10.74;100.00
44457;BME280;30159;49.316;8.558;2023-02-19T08:10:58;101030.97;;;10.37;100.00
44457;BME280;30159;49.316;8.558;2023-02-19T08:13:43;101102.44;;;10.92;100.00
44457;BME280;30159;49.316;8.558;2023-02-19T08:16:11;100956.41;;;10.10;100.00
44457;BME280;30159;49.316;8.558;2023-02-19T08:18:41;101097.91;;;11.03;100.00
44457;BME280;30159;49.316;8.558;2023-02-19T08:21:08;101034.88;;;10.67;100.00
44457;BME280;30159;49.316;8.558;2023-02-19T08:23:35;101088.19;;;11.07;100.00
44457;BME280;30159;49.316;8.558;2023-02-19T08:26:02;101085.03;;;11.36;100.00
44457;BME280;30159;49.316;8.558;2023-02-19T08:28:29;101059.63;;;11.37;100.00
44457;BME280;30159;49.316;8.558;2023-02-19T08:30:58;101073.16;;;11.47;100.00
44457;BME280;30159;49.316;8.558;2023-02-19T08:33:25;101089.66;;;11.61;100.00
44457;BME280;30159;49.316;8.558;2023-02-19T08:35:53;101088.81;;;11.60;100.00
44457;BME280;30159;49.316;8.558;2023-02-19T08:38:19;101106.13;;;11.70;100.00
44457;BME280;30159;49.316;8.558;2023-02-19T08:40:46;101095.06;;;11.66;100.00
44457;BME280;30159;49.316;8.558;2023-02-19T08:43:14;101100.72;;;11.65;100.00
44457;BME280;30159;49.316;8.558;2023-02-19T08:45:43;101100.97;;;11.63;100.00
44457;BME280;30159;49.316;8.558;2023-02-19T08:48:12;101114.50;;;11.63;100.00
44457;BME280;30159;49.316;8.558;2023-02-19T08:50:38;101110.72;;;11.69;100.00
44457;BME280;30159;49.316;8.558;2023-02-19T08:53:06;101073.41;;;11.56;100.00
44457;BME280;30159;49.316;8.558;2023-02-19T08:55:33;101116.69;;;11.71;100.00
44457;BME280;30159;49.316;8.558;2023-02-19T08:57:59;101128.56;;;11.86;100.00
44457;BME280;30159;49.316;8.558;2023-02-19T09:00:26;101137.53;;;11.96;100.00
44457;BME280;30159;49.316;8.558;2023-02-19T09:02:52;101139.69;;;11.89;100.00
44457;BME280;30159;49.316;8.558;2023-02-19T09:05:19;101149.44;;;12.11;100.00
44457;BME280;30159;49.316;8.558;2023-02-19T09:07:46;101143.47;;;12.34;100.00
44457;BME280;30159;49.316;8.558;2023-02-19T09:10:14;101153.97;;;12.56;100.00
44457;BME280;30159;49.316;8.558;2023-02-19T09:12:40;101157.47;;;12.67;100.00
44457;BME280;30159;49.316;8.558;2023-02-19T09:15:08;101166.63;;;12.81;100.00
44457;BME280;30159;49.316;8.558;2023-02-19T09:17:35;101173.66;;;12.88;100.00
44457;BME280;30159;49.316;8.558;2023-02-19T09:20:02;101177.66;;;13.11;100.00
44457;BME280;30159;49.316;8.558;2023-02-19T09:22:29;101179.53;;;13.15;100.00
44457;BME280;30159;49.316;8.558;2023-02-19T09:24:55;101179.03;;;13.08;100.00
44457;BME280;30159;49.316;8.558;2023-02-19T09:27:23;101179.88;;;12.93;100.00
44457;BME280;30159;49.316;8.558;2023-02-19T09:29:50;101192.34;;;12.94;100.00
44457;BME280;30159;49.316;8.558;2023-02-19T09:32:16;101185.34;;;12.68;100.00
44457;BME280;30159;49.316;8.558;2023-02-19T09:34:43;101198.84;;;12.83;100.00
44457;BME280;30159;49.316;8.558;2023-02-19T09:37:09;101182.25;;;13.10;100.00
44457;BME280;30159;49.316;8.558;2023-02-19T09:39:36;101188.09;;;13.43;99.23
44457;BME280;30159;49.316;8.558;2023-02-19T09:42:10;101176.69;;;13.46;97.10
44457;BME280;30159;49.316;8.558;2023-02-19T09:44:43;101186.94;;;13.54;97.01
44457;BME280;30159;49.316;8.558;2023-02-19T09:47:15;101185.34;;;13.53;96.14
44457;BME280;30159;49.316;8.558;2023-02-19T09:49:43;101202.09;;;13.60;96.15
44457;BME280;30159;49.316;8.558;2023-02-19T09:52:17;101206.56;;;13.25;95.76
44457;BME280;30159;49.316;8.558;2023-02-19T09:54:45;101201.22;;;13.10;96.18
44457;BME280;30159;49.316;8.558;2023-02-19T09:57:14;101182.81;;;13.02;94.59
44457;BME280;30159;49.316;8.558;2023-02-19T09:59:45;101194.44;;;13.07;97.59
44457;BME280;30159;49.316;8.558;2023-02-19T10:02:14;101193.13;;;13.00;96.36
44457;BME280;30159;49.316;8.558;2023-02-19T10:04:43;101201.72;;;13.12;97.45
44457;BME280;30159;49.316;8.558;2023-02-19T10:07:11;101207.75;;;12.99;96.89
44457;BME280;30159;49.316;8.558;2023-02-19T10:09:38;101202.28;;;13.09;95.41
44457;BME280;30159;49.316;8.558;2023-02-19T10:12:13;101169.88;;;12.94;96.47
44457;BME280;30159;49.316;8.558;2023-02-19T10:14:44;101198.44;;;13.31;96.56
44457;BME280;30159;49.316;8.558;2023-02-19T10:17:19;101176.25;;;13.18;97.25
44457;BME280;30159;49.316;8.558;2023-02-19T10:19:48;101109.34;;;12.49;97.87
44457;BME280;30159;49.316;8.558;2023-02-19T10:22:14;101097.13;;;12.67;97.91
44457;BME280;30159;49.316;8.558;2023-02-19T10:24:42;101135.72;;;12.98;96.30
44457;BME280;30159;49.316;8.558;2023-02-19T10:27:11;101183.81;;;13.32;94.02
44457;BME280;30159;49.316;8.558;2023-02-19T10:29:38;101201.63;;;13.48;94.82
44457;BME280;30159;49.316;8.558;2023-02-19T10:32:14;101195.16;;;13.39;91.89
44457;BME280;30159;49.316;8.558;2023-02-19T10:34:42;101185.47;;;13.22;94.43
44457;BME280;30159;49.316;8.558;2023-02-19T10:37:11;101207.38;;;13.26;95.17
44457;BME280;30159;49.316;8.558;2023-02-19T10:39:41;101203.84;;;13.31;96.95
44457;BME280;30159;49.316;8.558;2023-02-19T10:42:19;101206.84;;;13.19;95.51
44457;BME280;30159;49.316;8.558;2023-02-19T10:44:48;101200.09;;;13.32;95.78
44457;BME280;30159;49.316;8.558;2023-02-19T10:47:21;101200.84;;;13.37;92.89
44457;BME280;30159;49.316;8.558;2023-02-19T10:49:50;101197.03;;;13.43;93.19
44457;BME280;30159;49.316;8.558;2023-02-19T10:52:19;101189.97;;;13.47;92.41
44457;BME280;30159;49.316;8.558;2023-02-19T10:54:50;101212.91;;;13.65;92.16
44457;BME280;30159;49.316;8.558;2023-02-19T10:57:26;101223.47;;;13.67;89.61
44457;BME280;30159;49.316;8.558;2023-02-19T10:59:58;101185.41;;;13.43;88.53
44457;BME280;30159;49.316;8.558;2023-02-19T11:02:28;101228.94;;;13.62;89.02
44457;BME280;30159;49.316;8.558;2023-02-19T11:05:13;101219.34;;;13.75;91.00
44457;BME280;30159;49.316;8.558;2023-02-19T11:07:43;101218.97;;;13.91;89.02
44457;BME280;30159;49.316;8.558;2023-02-19T11:10:20;101213.56;;;13.91;86.68
44457;BME280;30159;49.316;8.558;2023-02-19T11:12:50;101221.53;;;13.73;86.32
44457;BME280;30159;49.316;8.558;2023-02-19T11:15:20;101177.84;;;13.35;88.12
44457;BME280;30159;49.316;8.558;2023-02-19T11:18:03;101244.56;;;13.80;87.63
44457;BME280;30159;49.316;8.558;2023-02-19T11:20:30;101231.16;;;13.55;86.84
44457;BME280;30159;49.316;8.558;2023-02-19T11:23:10;101265.53;;;13.64;88.43
44457;BME280;30159;49.316;8.558;2023-02-19T11:25:43;101256.31;;;13.60;87.32
44457;BME280;30159;49.316;8.558;2023-02-19T11:28:21;101274.00;;;13.42;88.95
44457;BME280;30159;49.316;8.558;2023-02-19T11:30:49;101279.19;;;13.23;90.55
44457;BME280;30159;49.316;8.558;2023-02-19T11:33:23;101275.91;;;13.37;91.72
44457;BME280;30159;49.316;8.558;2023-02-19T11:35:58;101221.00;;;13.00;91.30
44457;BME280;30159;49.316;8.558;2023-02-19T11:38:25;101291.13;;;13.27;93.32
44457;BME280;30159;49.316;8.558;2023-02-19T11:40:58;101280.56;;;13.31;95.71
44457;BME280;30159;49.316;8.558;2023-02-19T11:43:39;101257.50;;;13.28;94.60
44457;BME280;30159;49.316;8.558;2023-02-19T11:46:16;101260.16;;;13.49;94.08
44457;BME280;30159;49.316;8.558;2023-02-19T11:48:51;101262.47;;;13.76;94.42
44457;BME280;30159;49.316;8.558;2023-02-19T11:51:42;101259.59;;;13.57;91.82
44457;BME280;30159;49.316;8.558;2023-02-19T11:54:20;101260.66;;;13.61;94.41
44457;BME280;30159;49.316;8.558;2023-02-19T11:56:52;101204.59;;;13.46;93.47
44457;BME280;30159;49.316;8.558;2023-02-19T11:59:27;101251.91;;;13.75;92.94
44457;BME280;30159;49.316;8.558;2023-02-19T12:02:26;101249.31;;;13.49;92.06
44457;BME280;30159;49.316;8.558;2023-02-19T12:05:23;101254.00;;;13.28;93.11
44457;BME280;30159;49.316;8.558;2023-02-19T12:08:15;101260.78;;;13.15;94.35
44457;BME280;30159;49.316;8.558;2023-02-19T12:10:56;101256.44;;;13.24;95.77
44457;BME280;30159;49.316;8.558;2023-02-19T12:13:37;101260.44;;;13.47;93.88
44457;BME280;30159;49.316;8.558;2023-02-19T12:16:18;101246.97;;;13.82;93.57
44457;BME280;30159;49.316;8.558;2023-02-19T12:19:00;101241.13;;;14.09;90.02
44457;BME280;30159;49.316;8.558;2023-02-19T12:21:52;101241.03;;;14.19;89.37
44457;BME280;30159;49.316;8.558;2023-02-19T12:24:39;101227.16;;;14.26;88.89
44457;BME280;30159;49.316;8.558;2023-02-19T12:27:19;101178.84;;;14.28;86.37
44457;BME280;30159;49.316;8.558;2023-02-19T12:30:00;101246.03;;;14.75;85.26
44457;BME280;30159;49.316;8.558;2023-02-19T12:32:47;101245.19;;;14.80;84.57
44457;BME280;30159;49.316;8.558;2023-02-19T12:35:41;101260.97;;;14.73;85.50
44457;BME280;30159;49.316;8.558;2023-02-19T12:38:19;101278.53;;;14.51;87.27
44457;BME280;30159;49.316;8.558;2023-02-19T12:41:10;101158.16;;;13.63;86.83
44457;BME280;30159;49.316;8.558;2023-02-19T12:43:45;101237.88;;;14.07;85.40
44457;BME280;30159;49.316;8.558;2023-02-19T12:46:19;101244.09;;;14.07;85.80
44457;BME280;30159;49.316;8.558;2023-02-19T12:48:51;101239.03;;;14.35;86.68
44457;BME280;30159;49.316;8.558;2023-02-19T12:51:25;101235.38;;;14.50;85.18
44457;BME280;30159;49.316;8.558;2023-02-19T12:53:56;101236.50;;;14.44;85.98
44457;BME280;30159;49.316;8.558;2023-02-19T12:56:27;101247.84;;;14.56;85.24
44457;BME280;30159;49.316;8.558;2023-02-19T12:58:57;101239.50;;;14.42;85.27
44457;BME280;30159;49.316;8.558;2023-02-19T13:01:29;101234.81;;;14.19;85.17
44457;BME280;30159;49.316;8.558;2023-02-19T13:04:12;101217.16;;;13.82;85.01